Time;durP1;ratioP1;P1;durP2;ratioP2;P2;SDS_P1;SDS_P2;PMS_P1;PMS_P2;Temp;Humidity;BMP_temperature;BMP_pressure;BME280_temperature;BME280_humidity;BME280_pressure;Samples;Min_cycle;Max_cycle;Signal;HPM_P1;HPM_P2
2023/09/28 00:00:35;;;;;;;19.08;10.93;;;;;;;;;;4987900;28;20117;-74
2023/09/28 00:03:01;;;;;;;17.83;11.40;;;;;;;;;;4983872;28;20096;-74
2023/09/28 00:05:26;;;;;;;22.05;10.85;;;;;;;;;;4985803;28;20114;-74
2023/09/28 00:07:53;;;;;;;17.38;11.43;;;;;;;;;;4981973;28;20026;-74
2023/09/28 00:10:18;;;;;;;18.52;10.70;;;;;;;;;;4985335;28;20030;-73
2023/09/28 00:12:50;;;;;;;17.83;10.57;;;;;;;;;;4979724;28;20139;-74
2023/09/28 00:15:16;;;;;;;20.92;10.98;;;;;;;;;;4980850;28;20876;-74
2023/09/28 00:17:41;;;;;;;17.83;11.93;;;;;;;;;;4981195;28;20038;-74
2023/09/28 00:20:28;;;;;;;17.75;9.70;;;;;;;;;;4983047;28;20034;-74
2023/09/28 00:22:54;;;;;;;15.07;10.23;;;;;;;;;;4984891;28;20043;-73
2023/09/28 00:25:21;;;;;;;17.38;10.00;;;;;;;;;;4980452;28;20076;-73
2023/09/28 00:27:47;;;;;;;23.23;10.15;;;;;;;;;;4981343;28;20027;-74
2023/09/28 00:30:15;;;;;;;17.13;9.77;;;;;;;;;;4982865;28;20031;-73
2023/09/28 00:32:43;;;;;;;15.82;9.75;;;;;;;;;;4983462;28;20381;-71
2023/09/28 00:35:09;;;;;;;19.23;10.15;;;;;;;;;;4983349;28;20033;-70
2023/09/28 00:37:34;;;;;;;16.17;9.73;;;;;;;;;;4983017;28;20030;-70
2023/09/28 00:40:00;;;;;;;19.00;9.93;;;;;;;;;;4980123;28;20035;-70
2023/09/28 00:42:27;;;;;;;16.87;10.17;;;;;;;;;;4982155;28;20477;-70
2023/09/28 00:44:53;;;;;;;15.63;9.60;;;;;;;;;;4976959;28;20279;-70
2023/09/28 00:47:18;;;;;;;19.97;10.10;;;;;;;;;;4983075;28;20026;-69
2023/09/28 00:49:44;;;;;;;16.23;9.90;;;;;;;;;;4983067;28;20318;-74
2023/09/28 00:52:10;;;;;;;17.80;9.82;;;;;;;;;;4980650;28;20358;-73
2023/09/28 00:54:35;;;;;;;17.27;9.65;;;;;;;;;;4981973;28;20057;-74
2023/09/28 00:57:01;;;;;;;17.88;10.07;;;;;;;14.66;nan;100999.13;4980235;28;20030;-72
2023/09/28 00:59:26;;;;;;;13.88;9.25;;;;;;;;;;4983501;28;20034;-74
2023/09/28 01:01:53;;;;;;;15.23;9.73;;;;;;;;;;4981745;28;20125;-73
2023/09/28 01:04:18;;;;;;;18.38;10.02;;;;;;;;;;4976760;28;20053;-73
2023/09/28 01:06:43;;;;;;;17.37;9.70;;;;;;;;;;4985326;28;20559;-74
2023/09/28 01:09:09;;;;;;;14.20;8.98;;;;;;;;;;4981978;28;20409;-74
2023/09/28 01:11:36;;;;;;;14.48;9.27;;;;;;;;;;4982580;28;20092;-73
2023/09/28 01:14:01;;;;;;;18.15;9.38;;;;;;;;;;4978566;28;20030;-74
2023/09/28 01:16:27;;;;;;;14.57;9.00;;;;;;;;;;4974700;28;20054;-74
2023/09/28 01:18:52;;;;;;;16.77;9.67;;;;;;;;;;4982982;28;20038;-74
2023/09/28 01:21:18;;;;;;;14.38;9.25;;;;;;;;;;4986110;28;20034;-73
2023/09/28 01:23:45;;;;;;;13.68;9.20;;;;;;;;;;4981235;28;20078;-73
2023/09/28 01:26:10;;;;;;;19.52;10.20;;;;;;;;;;4981353;28;20392;-73
2023/09/28 01:28:36;;;;;;;15.18;9.25;;;;;;;14.47;nan;100987.88;4980509;28;20052;-73
2023/09/28 01:31:01;;;;;;;17.20;9.07;;;;;;;;;;4983520;28;20394;-74
2023/09/28 01:33:27;;;;;;;17.25;9.70;;;;;;;;;;4983413;28;20038;-74
2023/09/28 01:35:52;;;;;;;17.92;9.38;;;;;;;;;;4985523;28;20029;-74
2023/09/28 01:38:30;;;;;;;18.03;9.07;;;;;;;;;;4981675;28;20446;-74
2023/09/28 01:40:55;;;;;;;18.70;9.60;;;;;;;;;;4979756;28;20030;-72
2023/09/28 01:43:20;;;;;;;16.98;9.63;;;;;;;;;;4980654;28;20054;-73
2023/09/28 01:45:46;;;;;;;16.60;9.97;;;;;;;;;;4983802;28;20504;-74
2023/09/28 01:48:11;;;;;;;15.50;9.32;;;;;;;;;;4979610;28;20480;-72
2023/09/28 01:50:36;;;;;;;17.15;9.48;;;;;;;;;;4984313;28;20026;-73
2023/09/28 01:53:02;;;;;;;17.77;9.93;;;;;;;;;;4980722;28;20041;-72
2023/09/28 01:55:27;;;;;;;15.18;9.75;;;;;;;;;;4976904;28;20538;-73
2023/09/28 01:57:53;;;;;;;20.17;9.80;;;;;;;;;;4979531;28;20045;-73
2023/09/28 02:00:22;;;;;;;18.10;9.73;;;;;;;;;;4982372;28;20031;-72
2023/09/28 02:02:48;;;;;;;16.35;9.63;;;;;;;;;;4978790;28;20109;-73
2023/09/28 02:05:21;;;;;;;17.17;9.63;;;;;;;;;;4979304;28;20164;-73
2023/09/28 02:07:46;;;;;;;19.02;10.10;;;;;;;;;;4982718;28;20022;-73
2023/09/28 02:10:12;;;;;;;18.83;9.90;;;;;;;;;;4980216;28;20389;-72
2023/09/28 02:12:39;;;;;;;17.10;8.80;;;;;;;;;;4981290;28;20117;-73
2023/09/28 02:15:04;;;;;;;16.85;10.05;;;;;;;;;;4982842;28;20033;-73
2023/09/28 02:17:30;;;;;;;18.83;10.13;;;;;;;;;;4982700;28;20428;-73
2023/09/28 02:19:55;;;;;;;14.82;9.82;;;;;;;;;;4982624;28;20030;-72
2023/09/28 02:22:20;;;;;;;18.65;9.55;;;;;;;14.02;nan;100948.84;4983101;28;20456;-72
2023/09/28 02:24:46;;;;;;;14.57;9.07;;;;;;;;;;4980206;28;20404;-72
2023/09/28 02:27:12;;;;;;;17.00;9.73;;;;;;;;;;4978600;28;20399;-72
2023/09/28 02:29:37;;;;;;;15.50;9.57;;;;;;;;;;4980354;28;20026;-72
2023/09/28 02:32:02;;;;;;;15.87;9.73;;;;;;;;;;4978334;28;20057;-73
2023/09/28 02:34:28;;;;;;;15.60;9.90;;;;;;;;;;4975928;28;20369;-73
2023/09/28 02:36:54;;;;;;;19.63;9.43;;;;;;;;;;4981039;28;20495;-73
2023/09/28 02:39:19;;;;;;;25.05;10.10;;;;;;;;;;4977971;28;20066;-72
2023/09/28 02:41:44;;;;;;;21.67;10.50;;;;;;;;;;4981248;28;20054;-72
2023/09/28 02:44:09;;;;;;;15.67;10.33;;;;;;;;;;4976743;28;20058;-73
2023/09/28 02:46:35;;;;;;;19.87;9.70;;;;;;;;;;4983327;28;20054;-73
2023/09/28 02:49:02;;;;;;;19.25;10.13;;;;;;;;;;4979367;28;20291;-73
2023/09/28 02:51:27;;;;;;;20.60;9.25;;;;;;;;;;4982089;28;20037;-73
2023/09/28 02:53:52;;;;;;;17.97;9.43;;;;;;;;;;4981378;28;20494;-72
2023/09/28 02:56:17;;;;;;;17.30;9.87;;;;;;;;;;4976427;28;20019;-73
2023/09/28 02:58:45;;;;;;;16.23;10.03;;;;;;;;;;4976793;28;20286;-73
2023/09/28 03:01:11;;;;;;;16.33;9.50;;;;;;;;;;4979300;28;20379;-72
2023/09/28 03:03:36;;;;;;;14.07;9.75;;;;;;;;;;4982207;28;20037;-69
2023/09/28 03:06:04;;;;;;;19.10;9.77;;;;;;;;;;4983799;28;20381;-69
2023/09/28 03:08:30;;;;;;;16.23;9.55;;;;;;;;;;4981752;28;20038;-68
2023/09/28 03:10:56;;;;;;;19.27;9.68;;;;;;;;;;4980221;28;20031;-69
2023/09/28 03:13:21;;;;;;;18.75;10.60;;;;;;;;;;4992164;28;20037;-69
2023/09/28 03:15:47;;;;;;;18.75;10.27;;;;;;;;;;4978395;28;20428;-69
2023/09/28 03:18:13;;;;;;;19.67;10.15;;;;;;;;;;4979184;28;21476;-69
2023/09/28 03:20:40;;;;;;;19.65;10.18;;;;;;;;;;4979924;28;20023;-69
2023/09/28 03:23:07;;;;;;;24.83;11.35;;;;;;;;;;4979562;28;20038;-69
2023/09/28 03:25:32;;;;;;;19.60;10.52;;;;;;;;;;4983176;28;20030;-69
2023/09/28 03:27:57;;;;;;;23.80;10.57;;;;;;;;;;4984213;28;20069;-69
2023/09/28 03:30:24;;;;;;;30.63;11.40;;;;;;;;;;4982458;28;20269;-69
2023/09/28 03:32:49;;;;;;;19.58;10.73;;;;;;;;;;4987006;28;20030;-68
2023/09/28 03:35:16;;;;;;;15.30;10.40;;;;;;;;;;4981186;28;20030;-69
2023/09/28 03:37:41;;;;;;;21.67;9.52;;;;;;;;;;4980451;28;20144;-68
2023/09/28 03:40:10;;;;;;;18.38;10.20;;;;;;;;;;4980496;28;20468;-71
2023/09/28 03:42:43;;;;;;;17.48;10.73;;;;;;;;;;4982196;28;20817;-69
2023/09/28 03:45:09;;;;;;;19.83;10.95;;;;;;;;;;4983987;28;20038;-69
2023/09/28 03:47:38;;;;;;;17.58;10.23;;;;;;;;;;4983003;28;20588;-68
2023/09/28 03:50:03;;;;;;;16.97;10.80;;;;;;;;;;4979932;28;20038;-69
2023/09/28 03:52:29;;;;;;;18.75;9.63;;;;;;;;;;4981834;28;20294;-69
2023/09/28 03:54:56;;;;;;;17.15;9.95;;;;;;;;;;4980063;28;20038;-70
2023/09/28 03:57:21;;;;;;;18.02;10.18;;;;;;;;;;4983112;28;20374;-69
2023/09/28 03:59:46;;;;;;;20.27;10.53;;;;;;;;;;4977833;28;20023;-69
2023/09/28 04:02:13;;;;;;;22.73;10.57;;;;;;;;;;4982677;28;20276;-70
2023/09/28 04:04:38;;;;;;;23.27;10.98;;;;;;;;;;4980347;28;20035;-70
2023/09/28 04:07:03;;;;;;;22.83;10.88;;;;;;;;;;4982011;28;20731;-69
2023/09/28 04:09:29;;;;;;;19.83;10.63;;;;;;;;;;4981226;28;20576;-69
2023/09/28 04:11:55;;;;;;;27.27;10.73;;;;;;;;;;4983596;28;20045;-68
2023/09/28 04:14:22;;;;;;;20.42;10.23;;;;;;;;;;4980272;28;20030;-72
2023/09/28 04:16:47;;;;;;;18.05;10.13;;;;;;;;;;4981521;28;20050;-72
2023/09/28 04:19:12;;;;;;;21.80;10.32;;;;;;;;;;4981996;28;20524;-72
2023/09/28 04:21:38;;;;;;;18.87;10.43;;;;;;;;;;4978300;28;20492;-73
2023/09/28 04:24:03;;;;;;;16.13;9.88;;;;;;;;;;4978028;28;20396;-72
2023/09/28 04:26:29;;;;;;;18.88;10.18;;;;;;;;;;4980446;28;20188;-74
2023/09/28 04:28:54;;;;;;;22.70;10.33;;;;;;;;;;4979487;28;20035;-73
2023/09/28 04:31:19;;;;;;;18.27;10.67;;;;;;;;;;4983378;28;20034;-74
2023/09/28 04:33:45;;;;;;;35.47;10.88;;;;;;;;;;4980002;28;20026;-74
2023/09/28 04:36:10;;;;;;;21.60;10.47;;;;;;;;;;4981918;28;20110;-74
2023/09/28 04:38:36;;;;;;;25.63;10.43;;;;;;;;;;4982918;28;20276;-74
2023/09/28 04:41:02;;;;;;;25.10;11.52;;;;;;;;;;4980307;28;20153;-72
2023/09/28 04:43:27;;;;;;;25.23;11.10;;;;;;;;;;4979876;28;20113;-74
2023/09/28 04:45:53;;;;;;;25.52;11.23;;;;;;;;;;4981323;28;20030;-74
2023/09/28 04:48:18;;;;;;;23.80;11.30;;;;;;;;;;4980047;28;20029;-75
2023/09/28 04:50:44;;;;;;;23.90;10.97;;;;;;;;;;4981946;28;20034;-74
2023/09/28 04:53:09;;;;;;;23.40;10.95;;;;;;;;;;4982499;28;20030;-74
2023/09/28 04:55:34;;;;;;;17.73;10.20;;;;;;;;;;4979957;28;20109;-73
2023/09/28 04:58:00;;;;;;;34.42;10.85;;;;;;;;;;4982242;28;20719;-73
2023/09/28 05:00:26;;;;;;;19.08;9.93;;;;;;;;;;4979132;28;20113;-73
2023/09/28 05:02:52;;;;;;;15.75;9.65;;;;;;;;;;4980135;28;20676;-74
2023/09/28 05:05:17;;;;;;;19.92;10.40;;;;;;;;;;4982862;28;20026;-73
2023/09/28 05:07:42;;;;;;;18.33;10.33;;;;;;;;;;4979401;28;20031;-74
2023/09/28 05:10:08;;;;;;;18.90;9.87;;;;;;;;;;4982391;28;20304;-74
2023/09/28 05:12:33;;;;;;;18.65;9.98;;;;;;;;;;4979174;28;20284;-74
2023/09/28 05:14:59;;;;;;;17.92;9.93;;;;;;;;;;4980273;28;20061;-74
2023/09/28 05:17:24;;;;;;;24.52;10.93;;;;;;;;;;4981009;28;20062;-74
2023/09/28 05:19:49;;;;;;;22.13;10.25;;;;;;;;;;4993633;28;20034;-74
2023/09/28 05:22:15;;;;;;;19.73;9.77;;;;;;;;;;4982421;28;20102;-73
2023/09/28 05:24:40;;;;;;;19.90;10.63;;;;;;;;;;4978028;28;20288;-73
2023/09/28 05:27:05;;;;;;;20.80;10.35;;;;;;;;;;4986367;28;20440;-73
2023/09/28 05:29:31;;;;;;;19.10;9.83;;;;;;;;;;4977815;28;20031;-73
2023/09/28 05:31:56;;;;;;;22.95;9.63;;;;;;;;;;4980237;28;20642;-72
2023/09/28 05:34:21;;;;;;;29.15;9.85;;;;;;;;;;4979879;28;20113;-73
2023/09/28 05:36:47;;;;;;;20.27;10.10;;;;;;;;;;4982356;28;20485;-73
2023/09/28 05:39:12;;;;;;;23.35;9.93;;;;;;;;;;4981646;28;20049;-73
2023/09/28 05:41:38;;;;;;;21.70;10.20;;;;;;;;;;4976732;28;20054;-73
2023/09/28 05:44:03;;;;;;;19.35;9.68;;;;;;;;;;4981164;28;20420;-73
2023/09/28 05:46:29;;;;;;;26.50;10.40;;;;;;;;;;4978937;28;20038;-73
2023/09/28 05:48:54;;;;;;;19.35;9.63;;;;;;;;;;4981895;28;20026;-72
2023/09/28 05:51:20;;;;;;;16.77;9.23;;;;;;;;;;4979565;28;20042;-73
2023/09/28 05:53:45;;;;;;;19.40;9.40;;;;;;;;;;4983327;28;20500;-73
2023/09/28 05:56:10;;;;;;;16.97;9.67;;;;;;;;;;4979858;28;20022;-73
2023/09/28 05:58:35;;;;;;;20.33;9.07;;;;;;;;;;4977767;28;20777;-73
2023/09/28 06:01:06;;;;;;;18.97;9.13;;;;;;;;;;4982037;28;20115;-73
2023/09/28 06:03:31;;;;;;;19.10;9.55;;;;;;;;;;4979755;28;20319;-73
2023/09/28 06:05:57;;;;;;;15.02;8.88;;;;;;;;;;4993575;28;20066;-73
2023/09/28 06:08:22;;;;;;;20.10;9.47;;;;;;;;;;4975062;28;20489;-73
2023/09/28 06:10:48;;;;;;;19.23;8.85;;;;;;;;;;4978154;28;20046;-70
2023/09/28 06:13:13;;;;;;;15.40;8.00;;;;;;;;;;4980516;28;20045;-72
2023/09/28 06:15:39;;;;;;;24.13;9.05;;;;;;;;;;4976659;28;20050;-71
2023/09/28 06:18:04;;;;;;;17.53;8.87;;;;;;;;;;4979867;28;20026;-70
2023/09/28 06:20:29;;;;;;;19.42;8.98;;;;;;;;;;4982561;28;20280;-71
2023/09/28 06:22:55;;;;;;;17.67;8.50;;;;;;;;;;4982078;28;20093;-71
2023/09/28 06:25:20;;;;;;;22.90;8.30;;;;;;;;;;4979735;28;20280;-70
2023/09/28 06:27:47;;;;;;;12.88;8.57;;;;;;;;;;4981931;28;20287;-70
2023/09/28 06:30:12;;;;;;;21.45;7.93;;;;;;;;;;4980831;28;20069;-73
2023/09/28 06:32:38;;;;;;;14.93;7.88;;;;;;;;;;4978865;28;20022;-71
2023/09/28 06:35:03;;;;;;;11.75;7.68;;;;;;;;;;4981033;28;20034;-72
2023/09/28 06:37:29;;;;;;;12.30;8.00;;;;;;;;;;4977082;28;20026;-72
2023/09/28 06:39:55;;;;;;;19.02;8.55;;;;;;;;;;4978798;28;20030;-70
2023/09/28 06:42:20;;;;;;;15.20;7.50;;;;;;;;;;4980832;28;20531;-73
2023/09/28 06:44:45;;;;;;;13.13;7.70;;;;;;;;;;4977856;28;20507;-72
2023/09/28 06:47:11;;;;;;;13.37;7.83;;;;;;;;;;4977805;28;20287;-73
2023/09/28 06:49:36;;;;;;;12.85;7.28;;;;;;;;;;4980501;28;20343;-73
2023/09/28 06:52:03;;;;;;;13.52;7.78;;;;;;;;;;4978999;28;20080;-73
2023/09/28 06:54:28;;;;;;;16.20;7.90;;;;;;;;;;4985184;28;20079;-72
2023/09/28 06:56:54;;;;;;;17.90;7.47;;;;;;;17.24;nan;101143.38;4982545;28;20488;-73
2023/09/28 06:59:19;;;;;;;15.77;8.02;;;;;;;;;;4982562;28;20481;-73
2023/09/28 07:01:44;;;;;;;14.70;7.90;;;;;;;;;;4985142;28;20030;-73
2023/09/28 07:04:10;;;;;;;18.88;7.63;;;;;;;;;;4986686;28;20034;-73
2023/09/28 07:06:35;;;;;;;18.13;8.63;;;;;;;;;;4983852;28;20030;-73
2023/09/28 07:09:02;;;;;;;25.57;9.00;;;;;;;;;;4985318;28;20061;-71
2023/09/28 07:11:27;;;;;;;14.65;7.55;;;;;;;;;;4984726;28;20057;-71
2023/09/28 07:13:52;;;;;;;14.10;7.57;;;;;;;;;;4985697;28;20439;-71
2023/09/28 07:16:18;;;;;;;19.58;8.30;;;;;;;;;;4983683;28;20085;-71
2023/09/28 07:18:43;;;;;;;15.47;8.00;;;;;;;;;;4987785;28;20449;-70
2023/09/28 07:21:08;;;;;;;12.30;8.00;;;;;;;;;;4982121;28;20280;-70
2023/09/28 07:23:34;;;;;;;16.57;8.23;;;;;;;18.14;nan;101129.47;5000610;28;20481;-71
2023/09/28 07:26:00;;;;;;;14.55;7.72;;;;;;;;;;4982534;28;20338;-71
2023/09/28 07:28:26;;;;;;;14.52;7.90;;;;;;;18.38;nan;101136.00;4985521;28;20037;-72
2023/09/28 07:30:52;;;;;;;16.20;7.93;;;;;;;;;;4984455;28;20039;-71
2023/09/28 07:33:17;;;;;;;16.83;7.65;;;;;;;;;;4985996;28;20034;-71
2023/09/28 07:35:43;;;;;;;21.07;7.63;;;;;;;;;;4986080;28;20043;-72
2023/09/28 07:38:08;;;;;;;17.08;7.72;;;;;;;;;;4983342;28;20315;-71
2023/09/28 07:40:33;;;;;;;17.23;7.60;;;;;;;;;;4982883;28;20475;-71
2023/09/28 07:42:59;;;;;;;16.07;7.10;;;;;;;;;;4982853;28;20283;-69
2023/09/28 07:45:25;;;;;;;14.00;7.18;;;;;;;;;;4981918;28;20029;-68
2023/09/28 07:47:50;;;;;;;13.80;6.97;;;;;;;;;;4980653;28;20157;-70
2023/09/28 07:50:16;;;;;;;15.52;7.78;;;;;;;;;;4981574;28;20528;-75
2023/09/28 07:52:42;;;;;;;19.33;7.67;;;;;;;19.22;nan;101128.84;4983032;28;20034;-73
2023/09/28 07:55:07;;;;;;;13.90;7.82;;;;;;;;;;4983829;28;20038;-68
2023/09/28 07:57:33;;;;;;;19.95;8.07;;;;;;;;;;4984656;28;20069;-68
2023/09/28 07:59:59;;;;;;;15.18;7.40;;;;;;;19.42;nan;101042.63;4984844;28;20172;-69
2023/09/28 08:02:25;;;;;;;12.25;7.00;;;;;;;19.51;nan;101077.59;4982666;28;20026;-75
2023/09/28 08:04:51;;;;;;;12.60;7.50;;;;;;;;;;4984068;28;20068;-75
2023/09/28 08:07:17;;;;;;;13.73;7.53;;;;;;;;;;4983318;28;20062;-75
2023/09/28 08:09:43;;;;;;;16.42;7.05;;;;;;;19.92;nan;101089.06;4982741;28;20065;-71
2023/09/28 08:12:08;;;;;;;17.05;7.60;;;;;;;20.04;nan;101070.06;4982625;28;20472;-74
2023/09/28 08:14:34;;;;;;;13.98;6.97;;;;;;;;;;4991613;28;20026;-72
2023/09/28 08:16:59;;;;;;;14.57;6.78;;;;;;;20.24;nan;101049.69;4982616;28;20126;-73
2023/09/28 08:19:24;;;;;;;13.25;7.43;;;;;;;20.29;nan;101063.03;4984825;28;20026;-73
2023/09/28 08:21:50;;;;;;;17.98;7.30;;;;;;;20.29;nan;101047.78;4984156;28;20035;-74
2023/09/28 08:24:15;;;;;;;11.55;7.03;;;;;;;20.30;nan;101078.78;4979724;28;20087;-73
2023/09/28 08:26:41;;;;;;;12.82;6.65;;;;;;;20.35;nan;101049.38;4980879;28;20034;-74
2023/09/28 08:29:06;;;;;;;16.15;7.05;;;;;;;;;;4982498;28;20436;-74
2023/09/28 08:31:32;;;;;;;16.77;6.97;;;;;;;20.55;nan;101047.66;4979825;28;20034;-75
2023/09/28 08:34:03;;;;;;;12.85;7.28;;;;;;;20.62;nan;101048.19;4981629;28;20829;-75
2023/09/28 08:36:29;;;;;;;11.20;6.38;;;;;;;20.74;nan;101059.34;4979918;28;20072;-77
2023/09/28 08:38:55;;;;;;;12.63;6.95;;;;;;;;;;4980840;28;20030;-76
2023/09/28 08:41:36;;;;;;;13.55;6.97;;;;;;;20.97;nan;101033.78;4981924;28;20038;-76
2023/09/28 08:44:05;;;;;;;12.73;6.82;;;;;;;21.09;nan;101043.31;4975042;28;20680;-75
2023/09/28 08:46:38;;;;;;;13.77;6.68;;;;;;;21.25;nan;101039.44;4978236;28;20030;-75
2023/09/28 08:49:05;;;;;;;14.45;6.93;;;;;;;;;;4981087;28;20039;-75
2023/09/28 08:51:32;;;;;;;11.50;6.32;;;;;;;21.41;nan;100997.28;4979078;28;20027;-76
2023/09/28 08:54:03;;;;;;;20.40;7.13;;;;;;;21.53;nan;101019.13;4979521;28;20045;-72
2023/09/28 08:56:31;;;;;;;14.02;6.68;;;;;;;21.61;nan;101106.16;4979678;28;20022;-76
2023/09/28 08:58:59;;;;;;;14.82;6.40;;;;;;;21.69;nan;101027.81;4982685;28;20038;-76
2023/09/28 09:01:26;;;;;;;13.95;6.63;;;;;;;21.83;nan;101039.44;4981591;28;20022;-76
2023/09/28 09:03:52;;;;;;;14.00;6.50;;;;;;;21.94;nan;101036.69;4985220;28;20034;-72
2023/09/28 09:06:20;;;;;;;15.52;6.35;;;;;;;22.05;nan;101033.59;4984645;28;20560;-76
2023/09/28 09:08:48;;;;;;;17.48;6.47;;;;;;;22.23;nan;101032.06;4983670;28;20117;-75
2023/09/28 09:11:16;;;;;;;13.00;5.90;;;;;;;22.38;nan;101049.03;4979502;28;20390;-76
2023/09/28 09:13:54;;;;;;;12.45;7.53;;;;;;;22.48;nan;101032.78;4996641;28;20279;-76
2023/09/28 09:16:21;;;;;;;12.20;6.15;;;;;;;22.57;nan;101041.81;4980387;28;20054;-76
2023/09/28 09:18:48;;;;;;;16.85;7.30;;;;;;;22.66;nan;101023.97;4981274;28;20027;-76
2023/09/28 09:21:14;;;;;;;11.48;6.80;;;;;;;22.70;nan;101018.81;4980710;28;20031;-76
2023/09/28 09:23:39;;;;;;;14.23;6.32;;;;;;;22.83;nan;101033.38;4996539;28;20411;-75
2023/09/28 09:26:15;;;;;;;14.18;7.65;;;;;;;22.96;nan;101029.94;4977994;28;20504;-75
2023/09/28 09:28:44;;;;;;;10.82;6.75;;;;;;;23.04;nan;101031.22;4980584;28;20022;-75
2023/09/28 09:31:09;;;;;;;14.18;6.70;;;;;;;23.15;nan;101027.25;4982802;28;20073;-76
2023/09/28 09:33:36;;;;;;;11.57;6.55;;;;;;;23.32;nan;101014.09;4981242;28;20022;-76
2023/09/28 09:36:01;;;;;;;11.20;6.57;;;;;;;23.33;nan;101028.31;4978790;28;20026;-76
2023/09/28 09:38:28;;;;;;;13.45;6.50;;;;;;;23.34;nan;101021.84;4980959;28;20088;-76
2023/09/28 09:41:01;;;;;;;15.13;6.80;;;;;;;23.40;nan;101009.13;4980829;28;20088;-75
2023/09/28 09:43:31;;;;;;;13.68;7.07;;;;;;;23.53;nan;101003.75;4994962;28;20027;-76
2023/09/28 09:45:57;;;;;;;18.65;5.80;;;;;;;23.57;nan;100995.91;4984253;28;20030;-76
2023/09/28 09:48:24;;;;;;;12.45;6.13;;;;;;;23.69;nan;101068.00;4978772;28;20034;-75
2023/09/28 09:50:50;;;;;;;15.95;6.13;;;;;;;23.74;nan;100934.28;4985017;28;20022;-74
2023/09/28 09:53:16;;;;;;;10.32;5.68;;;;;;;23.86;nan;101019.84;4984728;28;20038;-76
2023/09/28 09:55:43;;;;;;;8.70;5.40;;;;;;;24.02;nan;101014.16;4988710;28;20026;-75
2023/09/28 09:58:14;;;;;;;11.90;5.88;;;;;;;24.11;nan;100974.66;4993898;28;20046;-75
2023/09/28 10:00:42;;;;;;;9.48;4.88;;;;;;;24.24;nan;100978.44;4976838;28;20026;-76
2023/09/28 10:03:08;;;;;;;11.32;5.75;;;;;;;24.29;nan;101008.72;4979916;28;20034;-75
2023/09/28 10:05:35;;;;;;;12.40;5.80;;;;;;;24.34;nan;101156.66;4979880;28;20716;-76
2023/09/28 10:08:03;;;;;;;16.13;6.32;;;;;;;24.41;nan;100990.16;4978769;28;20037;-77
2023/09/28 10:10:30;;;;;;;10.00;6.27;;;;;;;24.49;nan;100991.34;4978363;28;20077;-77
2023/09/28 10:12:57;;;;;;;14.35;6.45;;;;;;;24.53;nan;101018.47;4983007;28;20279;-76
2023/09/28 10:15:24;;;;;;;10.95;6.35;;;;;;;24.58;nan;101053.38;4976996;28;20053;-75
2023/09/28 10:17:50;;;;;;;8.85;5.85;;;;;;;24.61;nan;100986.25;4980310;28;20033;-75
2023/09/28 10:20:16;;;;;;;12.35;6.53;;;;;;;;;;4978183;28;20026;-72
2023/09/28 10:22:44;;;;;;;12.32;5.35;;;;;;;24.63;nan;100988.63;4980379;28;20088;-70
2023/09/28 10:25:15;;;;;;;8.68;4.68;;;;;;;24.66;nan;100992.59;4977977;28;20023;-75
2023/09/28 10:27:44;;;;;;;6.50;4.63;;;;;;;24.71;nan;100997.84;4979510;28;20026;-76
2023/09/28 10:30:21;;;;;;;10.05;5.05;;;;;;;24.83;nan;100990.06;4982681;28;20097;-74
2023/09/28 10:32:50;;;;;;;12.05;5.00;;;;;;;24.83;nan;100998.91;4986431;28;20050;-75
2023/09/28 10:35:31;;;;;;;;;;;;;;;24.92;nan;100998.16;4998846;28;20034;-75
2023/09/28 10:38:22;;;;;;;9.20;5.30;;;;;;;25.06;nan;101001.59;4985794;28;20292;-74
2023/09/28 10:41:01;;;;;;;9.15;5.07;;;;;;;25.07;nan;100954.69;4983350;28;20026;-75
2023/09/28 10:43:32;;;;;;;10.32;5.20;;;;;;;25.10;nan;100977.53;4982658;28;20026;-74
2023/09/28 10:46:01;;;;;;;12.15;5.40;;;;;;;25.17;nan;100996.75;4983174;28;20030;-74
2023/09/28 10:48:30;;;;;;;11.00;5.38;;;;;;;25.17;nan;100992.19;4983523;28;20054;-75
2023/09/28 10:50:56;;;;;;;;;;;;;;;25.22;nan;100977.78;4986461;28;20041;-75
2023/09/28 10:53:21;;;;;;;10.32;5.38;;;;;;;25.26;nan;101013.81;4982467;28;19910;-74
2023/09/28 10:55:47;;;;;;;11.65;5.03;;;;;;;25.38;nan;100983.56;4984530;28;20488;-75
2023/09/28 10:58:12;;;;;;;11.82;5.30;;;;;;;25.44;nan;100979.63;4981548;28;20403;-74
2023/09/28 11:00:38;;;;;;;6.70;5.20;;;;;;;25.46;nan;100978.22;4996245;28;20097;-76
2023/09/28 11:03:04;;;;;;;14.52;5.93;;;;;;;25.53;nan;100972.38;4983845;28;20030;-76
2023/09/28 11:05:30;;;;;;;9.52;6.10;;;;;;;;;;4986180;28;20535;-75
2023/09/28 11:07:59;;;;;;;12.02;6.05;;;;;;;25.59;nan;100981.88;4981871;28;20030;-74
2023/09/28 11:10:24;;;;;;;11.93;5.57;;;;;;;25.67;nan;100951.47;4984318;28;20523;-75
2023/09/28 11:12:50;;;;;;;14.63;5.45;;;;;;;25.77;nan;100968.47;4984015;28;20027;-75
2023/09/28 11:15:15;;;;;;;11.50;5.82;;;;;;;25.83;nan;100956.41;4981973;28;20086;-75
2023/09/28 11:17:41;;;;;;;8.75;5.40;;;;;;;25.85;nan;101002.78;4978444;28;20540;-75
2023/09/28 11:20:11;;;;;;;8.65;5.22;;;;;;;25.91;nan;100944.91;4982017;28;20092;-70
2023/09/28 11:22:36;;;;;;;9.27;5.18;;;;;;;25.95;nan;100945.84;4982908;28;20030;-75
2023/09/28 11:25:02;;;;;;;7.05;4.75;;;;;;;26.00;nan;100950.28;4985677;28;20034;-75
2023/09/28 11:27:28;;;;;;;10.20;4.57;;;;;;;26.13;nan;100960.16;4982261;28;20420;-75
2023/09/28 11:29:55;;;;;;;10.38;4.82;;;;;;;26.17;nan;100912.53;4983179;28;20612;-74
2023/09/28 11:32:21;;;;;;;12.43;5.05;;;;;;;26.21;nan;100901.88;4980770;28;20044;-75
2023/09/28 11:34:46;;;;;;;10.15;4.50;;;;;;;26.21;nan;101107.84;4980860;28;20022;-74
2023/09/28 11:37:14;;;;;;;10.50;4.30;;;;;;;26.23;nan;100934.75;4983634;28;20018;-74
2023/09/28 11:39:40;;;;;;;7.63;3.75;;;;;;;26.22;nan;100949.38;4980256;28;20019;-74
2023/09/28 11:42:07;;;;;;;9.43;3.67;;;;;;;26.23;nan;100935.53;4988854;28;20026;-75
2023/09/28 11:44:34;;;;;;;13.10;3.92;;;;;;;26.20;nan;100920.00;4983349;28;20036;-75
2023/09/28 11:46:59;;;;;;;7.47;3.78;;;;;;;26.25;nan;100997.31;4982473;28;20484;-75
2023/09/28 11:49:25;;;;;;;8.10;3.60;;;;;;;26.30;nan;100975.56;4980968;28;20038;-75
2023/09/28 11:51:54;;;;;;;6.57;3.97;;;;;;;26.39;nan;100925.06;4981684;28;20116;-76
2023/09/28 11:54:20;;;;;;;;;;;;;;;26.40;nan;100942.06;4982620;28;20061;-75
2023/09/28 11:56:46;;;;;;;5.20;3.95;;;;;;;26.43;nan;100930.59;4979361;28;19914;-74
2023/09/28 11:59:15;;;;;;;6.13;3.65;;;;;;;26.46;nan;100946.97;4981056;28;20030;-74
2023/09/28 12:01:42;;;;;;;6.88;3.60;;;;;;;26.49;nan;100953.66;4986312;28;20052;-74
2023/09/28 12:04:08;;;;;;;11.82;3.63;;;;;;;26.49;nan;100934.75;4980214;28;20030;-73
2023/09/28 12:06:34;;;;;;;7.45;3.40;;;;;;;26.50;nan;100893.91;4979803;28;20480;-74
2023/09/28 12:08:59;;;;;;;7.18;3.70;;;;;;;26.57;nan;100917.75;4982258;28;20033;-74
2023/09/28 12:11:24;;;;;;;10.40;3.75;;;;;;;26.61;nan;100928.72;4979651;28;20061;-74
2023/09/28 12:13:50;;;;;;;12.00;3.42;;;;;;;26.63;nan;100913.00;4979587;28;20092;-73
2023/09/28 12:16:15;;;;;;;9.52;3.55;;;;;;;26.65;nan;100891.84;4980683;28;20050;-74
2023/09/28 12:18:41;;;;;;;7.90;3.15;;;;;;;26.65;nan;100972.88;4979989;28;20451;-73
2023/09/28 12:21:06;;;;;;;5.03;3.35;;;;;;;26.66;nan;100923.16;4989239;28;20047;-74
2023/09/28 12:23:32;;;;;;;8.65;3.17;;;;;;;26.67;nan;100922.03;4980482;28;20045;-74
2023/09/28 12:25:57;;;;;;;9.07;3.60;;;;;;;26.65;nan;100954.78;4982081;28;20738;-74
2023/09/28 12:28:23;;;;;;;8.60;3.05;;;;;;;;;;4980921;28;20042;-74
2023/09/28 12:30:48;;;;;;;10.90;3.40;;;;;;;26.77;nan;100962.25;4979887;28;20034;-75
2023/09/28 12:33:14;;;;;;;8.20;3.40;;;;;;;26.76;nan;100905.81;4981923;28;20026;-78
2023/09/28 12:35:39;;;;;;;5.20;3.38;;;;;;;26.66;nan;100953.66;4995736;28;20058;-77
2023/09/28 12:38:07;;;;;;;5.47;2.95;;;;;;;26.66;nan;100861.03;4981471;28;20113;-76
2023/09/28 12:40:33;;;;;;;12.93;3.30;;;;;;;26.70;nan;100875.47;4985861;28;20054;-75
2023/09/28 12:43:05;;;;;;;8.00;3.20;;;;;;;26.66;nan;100891.53;4980409;28;20070;-74
2023/09/28 12:45:35;;;;;;;9.55;3.20;;;;;;;26.71;nan;100909.47;4978936;28;20048;-76
2023/09/28 12:48:05;;;;;;;10.75;3.33;;;;;;;26.70;nan;100905.97;4981050;28;20146;-75
2023/09/28 12:50:32;;;;;;;9.07;3.10;;;;;;;26.71;nan;100883.25;4994941;28;20034;-75
2023/09/28 12:52:58;;;;;;;6.60;3.20;;;;;;;26.74;nan;100916.94;4980020;28;20030;-75
2023/09/28 12:55:27;;;;;;;7.72;3.05;;;;;;;26.73;nan;100902.63;4982344;28;20038;-74
2023/09/28 12:57:56;;;;;;;5.93;2.75;;;;;;;26.73;nan;100904.53;4981286;28;20504;-74
2023/09/28 13:00:24;;;;;;;6.78;3.42;;;;;;;;;;4979583;28;20477;-75
2023/09/28 13:02:49;;;;;;;6.63;2.95;;;;;;;26.70;nan;100881.66;4979193;28;20556;-75
2023/09/28 13:05:17;;;;;;;6.60;3.08;;;;;;;26.73;nan;100894.53;4978231;28;20034;-75
2023/09/28 13:07:42;;;;;;;7.13;2.92;;;;;;;26.72;nan;100874.03;4993040;28;20445;-75